Time;durP1;ratioP1;P1;durP2;ratioP2;P2;SDS_P1;SDS_P2;PMS_P1;PMS_P2;Temp;Humidity;BMP_temperature;BMP_pressure;BME280_temperature;BME280_humidity;BME280_pressure;Samples;Min_cycle;Max_cycle;Signal;HPM_P1;HPM_P2
2023/11/15 00:00:58;;;;;;;1.50;0.53;;;;;;;;;;5023062;28;20973;-85
2023/11/15 00:03:24;;;;;;;1.67;0.50;;;;;;;;;;5016086;28;20433;-85
2023/11/15 00:05:50;;;;;;;1.53;0.50;;;;;;;;;;5022028;28;20271;-85
2023/11/15 00:08:16;;;;;;;1.57;0.77;;;;;;;;;;5019645;28;20179;-84
2023/11/15 00:10:42;;;;;;;2.00;0.40;;;;;;;;;;5023991;28;20437;-84
2023/11/15 00:13:08;;;;;;;1.57;0.50;;;;;;;;;;5013219;28;20482;-84
2023/11/15 00:15:35;;;;;;;2.13;0.97;;;;;;;;;;5028578;28;20462;-83
2023/11/15 00:18:04;;;;;;;1.70;0.70;;;;;;;;;;5013424;28;20446;-84
2023/11/15 00:20:33;;;;;;;4.10;0.80;;;;;;;;;;5013381;28;20417;-84
2023/11/15 00:22:59;;;;;;;1.30;0.50;;;;;;;;;;5013597;28;20904;-85
2023/11/15 00:25:25;;;;;;;1.67;0.50;;;;;;;;;;5013594;28;20399;-84
2023/11/15 00:27:51;;;;;;;2.00;0.63;;;;;;;;;;5013590;28;20436;-84
2023/11/15 00:30:18;;;;;;;2.33;0.87;;;;;;;;;;5021635;28;20540;-83
2023/11/15 00:32:44;;;;;;;1.80;0.63;;;;;;;;;;5015772;28;20467;-84
2023/11/15 00:35:12;;;;;;;1.97;0.90;;;;;;;;;;5033170;28;20410;-84
2023/11/15 00:37:38;;;;;;;3.70;1.43;;;;;;;;;;4992747;28;20440;-84
2023/11/15 00:40:04;;;;;;;2.33;0.80;;;;;;;;;;5032909;28;20409;-84
2023/11/15 00:42:30;;;;;;;3.50;1.33;;;;;;;;;;5033082;28;20414;-84
2023/11/15 00:44:56;;;;;;;1.50;0.90;;;;;;;;;;5033099;28;20411;-85
2023/11/15 00:47:22;;;;;;;2.50;0.57;;;;;;;;;;5032700;28;20911;-84
2023/11/15 00:49:48;;;;;;;3.00;1.30;;;;;;;;;;5033045;28;20459;-84
2023/11/15 00:52:14;;;;;;;3.67;1.37;;;;;;;;;;5031577;28;21005;-84
2023/11/15 00:54:41;;;;;;;1.80;0.67;;;;;;;;;;5032966;28;20229;-84
2023/11/15 00:57:07;;;;;;;2.10;0.97;;;;;;;;;;5032863;28;20242;-84
2023/11/15 00:59:37;;;;;;;2.00;0.93;;;;;;;;;;5033063;28;20738;-84
2023/11/15 01:02:05;;;;;;;1.63;0.30;;;;;;;;;;5032563;28;20853;-84
2023/11/15 01:04:31;;;;;;;2.43;1.27;;;;;;;;;;5032715;28;20967;-84
2023/11/15 01:06:57;;;;;;;1.93;0.70;;;;;;;;;;5032808;28;20427;-83
2023/11/15 01:09:23;;;;;;;2.13;0.90;;;;;;;;;;5031684;28;20436;-85
2023/11/15 01:11:50;;;;;;;1.30;1.03;;;;;;;;;;5032844;28;20470;-84
2023/11/15 01:14:16;;;;;;;3.10;0.83;;;;;;;;;;5032742;28;20405;-84
2023/11/15 01:16:42;;;;;;;2.70;1.03;;;;;;;;;;5032516;28;20923;-84
2023/11/15 01:19:08;;;;;;;1.43;0.60;;;;;;;;;;5032790;28;20769;-84
2023/11/15 01:21:37;;;;;;;1.13;0.50;;;;;;;;;;5032673;28;20216;-84
2023/11/15 01:24:09;;;;;;;1.83;0.57;;;;;;;;;;5031615;28;20422;-84
2023/11/15 01:26:35;;;;;;;1.30;0.60;;;;;;;;;;5032569;28;20412;-85
2023/11/15 01:29:01;;;;;;;4.80;1.80;;;;;;;;;;5032704;28;20413;-85
2023/11/15 01:31:27;;;;;;;2.03;0.90;;;;;;;;;;5031968;28;20238;-84
2023/11/15 01:33:53;;;;;;;3.20;1.60;;;;;;;;;;5032604;28;20413;-85
2023/11/15 01:36:19;;;;;;;2.80;1.33;;;;;;;;;;5032532;28;20413;-85
2023/11/15 01:38:45;;;;;;;2.50;1.30;;;;;;;;;;5032561;28;20190;-85
2023/11/15 01:41:16;;;;;;;2.40;1.30;;;;;;;;;;5032405;28;20184;-85
2023/11/15 01:43:42;;;;;;;2.57;0.93;;;;;;;;;;5031231;28;20750;-85
2023/11/15 01:46:08;;;;;;;2.77;0.87;;;;;;;;;;5032526;28;20419;-86
2023/11/15 01:48:34;;;;;;;1.73;0.63;;;;;;;;;;5030807;28;20178;-86
2023/11/15 01:51:01;;;;;;;5.43;2.00;;;;;;;;;;5033200;28;20409;-86
2023/11/15 01:53:27;;;;;;;3.33;1.60;;;;;;;;;;5036096;28;20751;-85
2023/11/15 01:55:54;;;;;;;3.40;2.27;;;;;;;;;;5036129;28;20415;-86
2023/11/15 01:58:20;;;;;;;4.57;2.63;;;;;;;;;;5036111;28;20832;-85
2023/11/15 02:00:46;;;;;;;4.73;2.20;;;;;;;;;;5030473;28;20429;-84
2023/11/15 02:03:12;;;;;;;5.37;2.97;;;;;;;;;;5025595;28;20487;-86
2023/11/15 02:05:38;;;;;;;7.47;2.60;;;;;;;;;;5016063;28;20423;-86
2023/11/15 02:08:04;;;;;;;4.60;3.47;;;;;;;;;;5030947;28;20420;-85
2023/11/15 02:10:31;;;;;;;5.40;2.90;;;;;;;;;;5035759;28;20426;-86
2023/11/15 02:12:57;;;;;;;5.63;3.60;;;;;;;;;;5035752;28;20594;-85
2023/11/15 02:15:22;;;;;;;5.70;3.07;;;;;;;;;;5034463;28;20499;-86
2023/11/15 02:17:48;;;;;;;5.80;3.93;;;;;;;;;;5022705;28;20927;-86
2023/11/15 02:20:16;;;;;;;5.20;3.60;;;;;;;;;;5015790;28;20424;-86
2023/11/15 02:22:49;;;;;;;5.93;3.50;;;;;;;;;;5015865;28;20421;-86
2023/11/15 02:25:15;;;;;;;5.13;3.90;;;;;;;;;;5015961;28;20900;-84
2023/11/15 02:27:41;;;;;;;6.50;4.47;;;;;;;;;;5015836;28;20429;-84
2023/11/15 02:30:08;;;;;;;7.63;5.70;;;;;;;;;;5030844;28;20420;-86
2023/11/15 02:32:35;;;;;;;9.93;5.53;;;;;;;;;;5015320;28;20833;-87
2023/11/15 02:35:02;;;;;;;9.73;7.30;;;;;;;;;;5015759;28;20527;-87
2023/11/15 02:37:29;;;;;;;8.43;5.20;;;;;;;;;;4991400;28;20444;-87
2023/11/15 02:39:57;;;;;;;6.10;4.23;;;;;;;;;;5024632;28;20409;-84
2023/11/15 02:42:23;;;;;;;7.70;4.80;;;;;;;;;;5035319;28;20416;-85
2023/11/15 02:44:52;;;;;;;7.93;4.97;;;;;;;;;;5035454;28;20415;-86
2023/11/15 02:47:18;;;;;;;7.00;4.70;;;;;;;;;;5034980;28;20414;-85
2023/11/15 02:49:45;;;;;;;7.63;5.10;;;;;;;;;;5048171;28;20932;-84
2023/11/15 02:52:11;;;;;;;7.13;4.80;;;;;;;;;;5054979;28;20464;-85
2023/11/15 02:54:36;;;;;;;7.40;5.90;;;;;;;;;;5070442;28;20762;-85
2023/11/15 02:57:03;;;;;;;8.73;6.27;;;;;;;;;;5070419;28;20207;-85
2023/11/15 02:59:28;;;;;;;7.87;6.00;;;;;;;;;;5070385;28;20708;-84
2023/11/15 03:01:54;;;;;;;7.80;5.57;;;;;;;;;;5069868;28;20509;-86
2023/11/15 03:04:20;;;;;;;7.33;5.50;;;;;;;;;;5054997;28;20195;-84
2023/11/15 03:06:47;;;;;;;8.97;5.90;;;;;;;;;;5054834;28;20450;-85
2023/11/15 03:09:13;;;;;;;8.03;6.00;;;;;;;;;;5054789;28;20502;-85
2023/11/15 03:11:39;;;;;;;7.97;5.70;;;;;;;;;;5054598;28;20506;-86
2023/11/15 03:14:05;;;;;;;9.37;5.93;;;;;;;;;;5054760;28;20455;-84
2023/11/15 03:16:31;;;;;;;7.90;5.40;;;;;;;;;;5054321;28;20475;-85
2023/11/15 03:18:57;;;;;;;7.07;5.10;;;;;;;;;;5054625;28;20423;-85
2023/11/15 03:21:23;;;;;;;8.80;6.13;;;;;;;;;;5054588;28;20412;-85
2023/11/15 03:23:49;;;;;;;8.30;5.40;;;;;;;;;;5054591;28;20419;-85
2023/11/15 03:26:15;;;;;;;9.00;5.43;;;;;;;;;;5069770;28;20629;-85
2023/11/15 03:28:40;;;;;;;7.17;5.70;;;;;;;;;;5054331;28;20197;-85
2023/11/15 03:31:06;;;;;;;8.50;6.80;;;;;;;;;;5053795;28;20501;-85
2023/11/15 03:33:32;;;;;;;10.10;5.97;;;;;;;;;;5054352;28;20178;-85
2023/11/15 03:35:58;;;;;;;7.73;5.53;;;;;;;;;;5054325;28;20169;-86
2023/11/15 03:38:26;;;;;;;7.33;5.43;;;;;;;;;;5069518;28;20899;-85
2023/11/15 03:40:53;;;;;;;7.07;5.30;;;;;;;;;;5054237;28;20169;-86
2023/11/15 03:43:19;;;;;;;8.37;5.50;;;;;;;;;;5054099;28;20408;-85
2023/11/15 03:45:45;;;;;;;6.60;4.87;;;;;;;;;;5053945;28;20412;-86
2023/11/15 03:48:11;;;;;;;8.03;5.80;;;;;;;;;;5053646;28;20243;-85
2023/11/15 03:50:37;;;;;;;5.80;4.33;;;;;;;;;;5053908;28;20404;-86
2023/11/15 03:53:02;;;;;;;5.80;3.80;;;;;;;;;;5053693;28;20498;-86
2023/11/15 03:55:30;;;;;;;6.70;4.23;;;;;;;;;;5069230;28;20474;-86
2023/11/15 03:57:56;;;;;;;6.50;3.40;;;;;;;;;;5069116;28;20419;-85
2023/11/15 04:00:22;;;;;;;4.60;2.50;;;;;;;;;;5053861;28;20875;-87
2023/11/15 04:02:48;;;;;;;4.07;2.67;;;;;;;;;;5053453;28;20502;-86
2023/11/15 04:05:17;;;;;;;8.00;3.90;;;;;;;;;;5053655;28;20502;-85
2023/11/15 04:07:43;;;;;;;4.50;3.67;;;;;;;;;;5069019;28;20838;-86
2023/11/15 04:10:09;;;;;;;4.80;2.80;;;;;;;;;;5068946;28;20534;-85
2023/11/15 04:12:36;;;;;;;6.13;3.13;;;;;;;;;;5053520;28;20482;-86
2023/11/15 04:15:05;;;;;;;5.10;3.63;;;;;;;;;;5053116;28;20401;-86
2023/11/15 04:17:31;;;;;;;4.47;3.10;;;;;;;;;;5036086;28;20456;-87
2023/11/15 04:19:57;;;;;;;4.57;2.20;;;;;;;;;;5033423;28;20789;-86
2023/11/15 04:22:23;;;;;;;5.27;2.47;;;;;;;;;;5033557;28;20412;-85
2023/11/15 04:24:50;;;;;;;2.60;1.23;;;;;;;;;;5033565;28;20231;-85
2023/11/15 04:27:16;;;;;;;4.37;1.87;;;;;;;;;;5026373;28;20185;-84
2023/11/15 04:29:42;;;;;;;3.87;1.70;;;;;;;;;;5025656;28;20483;-87
2023/11/15 04:32:08;;;;;;;3.17;1.80;;;;;;;;;;5028399;28;20242;-87
2023/11/15 04:34:34;;;;;;;3.00;1.53;;;;;;;;;;5013659;28;20607;-87
2023/11/15 04:36:59;;;;;;;3.00;1.73;;;;;;;;;;5013673;28;20905;-87
2023/11/15 04:39:28;;;;;;;3.27;2.10;;;;;;;;;;5013631;28;21012;-86
2023/11/15 04:41:57;;;;;;;2.93;1.67;;;;;;;;;;5013590;28;20421;-88
2023/11/15 04:44:23;;;;;;;2.40;1.63;;;;;;;;;;5012310;28;20499;-86
2023/11/15 04:46:50;;;;;;;4.57;2.57;;;;;;;;;;5013172;28;20825;-87
2023/11/15 04:49:16;;;;;;;2.80;1.73;;;;;;;;;;5013459;28;20414;-86
2023/11/15 04:51:42;;;;;;;3.53;1.97;;;;;;;;;;5013358;28;20464;-86
2023/11/15 04:54:10;;;;;;;2.73;2.43;;;;;;;;;;5013433;28;20576;-86
2023/11/15 04:56:36;;;;;;;3.10;1.57;;;;;;;;;;5013440;28;20194;-86
2023/11/15 04:59:02;;;;;;;3.00;1.97;;;;;;;;;;5013356;28;20456;-86
2023/11/15 05:01:28;;;;;;;2.43;1.47;;;;;;;;;;5011629;28;20183;-86
2023/11/15 05:03:54;;;;;;;3.17;1.63;;;;;;;;;;5011995;28;20426;-83
2023/11/15 05:06:20;;;;;;;2.57;1.40;;;;;;;;;;5011931;28;20935;-85
2023/11/15 05:08:46;;;;;;;3.23;2.17;;;;;;;;;;5012925;28;20417;-86
2023/11/15 05:11:12;;;;;;;2.63;1.33;;;;;;;;;;5013256;28;20422;-87
2023/11/15 05:13:38;;;;;;;5.00;2.10;;;;;;;;;;5013187;28;20781;-88
2023/11/15 05:16:04;;;;;;;3.03;1.20;;;;;;;;;;5011671;28;20450;-88
2023/11/15 05:18:30;;;;;;;3.33;1.67;;;;;;;;;;5012092;28;20211;-88
2023/11/15 05:20:56;;;;;;;5.93;2.33;;;;;;;;;;5012032;28;20507;-86
2023/11/15 05:23:22;;;;;;;4.50;2.83;;;;;;;;;;5013189;28;20420;-86
2023/11/15 05:25:48;;;;;;;4.77;2.37;;;;;;;;;;5013597;28;20414;-85
2023/11/15 05:28:14;;;;;;;3.40;1.83;;;;;;;;;;5017002;28;20175;-86
2023/11/15 05:30:41;;;;;;;3.83;2.30;;;;;;;;;;5015760;28;20458;-87
2023/11/15 05:33:08;;;;;;;3.87;2.70;;;;;;;;;;5017065;28;20811;-86
2023/11/15 05:35:34;;;;;;;3.63;2.53;;;;;;;;;;5017053;28;20419;-87
2023/11/15 05:38:00;;;;;;;4.67;3.07;;;;;;;;;;5017008;28;20423;-86
2023/11/15 05:40:26;;;;;;;4.80;3.13;;;;;;;;;;5016850;28;20412;-86
2023/11/15 05:42:52;;;;;;;5.13;2.80;;;;;;;;;;5016684;28;20415;-85
2023/11/15 05:45:18;;;;;;;4.00;2.80;;;;;;;;;;5016680;28;20497;-86
2023/11/15 05:47:44;;;;;;;3.90;2.90;;;;;;;;;;5016378;28;20417;-86
2023/11/15 05:50:10;;;;;;;4.23;2.50;;;;;;;;;;5016629;28;20442;-86
2023/11/15 05:52:39;;;;;;;6.13;2.23;;;;;;;;;;5016557;28;20479;-86
2023/11/15 05:55:11;;;;;;;7.10;3.10;;;;;;;;;;5016605;28;20930;-87
2023/11/15 05:57:37;;;;;;;3.87;2.50;;;;;;;;;;5016424;28;20425;-86
2023/11/15 06:00:20;;;;;;;5.87;3.40;;;;;;;;;;5016441;28;20452;-86
2023/11/15 06:02:49;;;;;;;4.53;2.80;;;;;;;;;;5015995;28;20787;-86
2023/11/15 06:05:16;;;;;;;4.23;3.40;;;;;;;;;;5016261;28;20416;-86
2023/11/15 06:07:43;;;;;;;6.43;3.30;;;;;;;;;;5016214;28;20578;-85
2023/11/15 06:10:10;;;;;;;4.53;2.90;;;;;;;;;;4988000;28;20949;-86
2023/11/15 06:12:36;;;;;;;5.07;2.83;;;;;;;;;;5055790;28;20617;-86
2023/11/15 06:15:03;;;;;;;3.67;2.77;;;;;;;;;;5055177;28;20460;-85
2023/11/15 06:17:30;;;;;;;4.67;3.17;;;;;;;;;;5044316;28;20756;-85
2023/11/15 06:19:57;;;;;;;7.27;3.40;;;;;;;;;;5044881;28;20466;-84
2023/11/15 06:22:23;;;;;;;4.50;1.97;;;;;;;;;;5045973;28;20499;-83
2023/11/15 06:24:50;;;;;;;4.80;2.50;;;;;;;;;;5043870;28;20469;-83
2023/11/15 06:27:20;;;;;;;3.47;2.37;;;;;;;;;;5045610;28;20495;-84
2023/11/15 06:29:50;;;;;;;3.43;1.80;;;;;;;;;;5056844;28;20480;-84
2023/11/15 06:32:16;;;;;;;2.83;1.83;;;;;;;;;;5039339;28;20476;-81
2023/11/15 06:34:45;;;;;;;3.83;2.07;;;;;;;;;;5044794;28;20817;-80
2023/11/15 06:37:14;;;;;;;3.87;2.20;;;;;;;;;;5048017;28;20827;-80
2023/11/15 06:39:43;;;;;;;3.60;1.83;;;;;;;;;;5047480;28;20417;-80
2023/11/15 06:42:10;;;;;;;5.10;2.20;;;;;;;;;;5055350;28;20839;-79
2023/11/15 06:44:36;;;;;;;2.80;1.40;;;;;;;;;;5055351;28;20422;-80
2023/11/15 06:47:02;;;;;;;4.07;2.10;;;;;;;;;;5054869;28;20510;-79
2023/11/15 06:49:28;;;;;;;5.23;3.43;;;;;;;;;;5055215;28;20415;-79
2023/11/15 06:51:55;;;;;;;5.63;2.70;;;;;;;;;;5055128;28;20822;-80
2023/11/15 06:54:21;;;;;;;3.93;3.03;;;;;;;;;;5055206;28;20408;-79
2023/11/15 06:56:48;;;;;;;6.60;3.00;;;;;;;;;;5053878;28;20510;-80
2023/11/15 06:59:17;;;;;;;8.67;3.43;;;;;;;;;;5055043;28;20572;-81
2023/11/15 07:01:48;;;;;;;6.40;4.60;;;;;;;;;;5053435;28;20431;-80
2023/11/15 07:04:14;;;;;;;7.40;4.97;;;;;;;;;;5054938;28;20485;-79
2023/11/15 07:06:44;;;;;;;7.47;4.93;;;;;;;;;;5054901;28;20412;-80
2023/11/15 07:09:12;;;;;;;9.10;4.83;;;;;;;;;;5054777;28;20410;-80
2023/11/15 07:11:42;;;;;;;6.10;4.60;;;;;;;;;;5053384;28;20475;-79
2023/11/15 07:14:10;;;;;;;7.43;5.00;;;;;;;;;;5024407;28;21434;-79
2023/11/15 07:16:36;;;;;;;8.30;4.97;;;;;;;;;;5022601;28;20632;-79
2023/11/15 07:19:02;;;;;;;7.13;4.90;;;;;;;;;;5034786;28;20420;-79
2023/11/15 07:21:30;;;;;;;9.47;4.60;;;;;;;;;;5034745;28;20166;-81
2023/11/15 07:23:58;;;;;;;7.20;4.60;;;;;;;;;;5033508;28;20420;-78
2023/11/15 07:26:24;;;;;;;9.43;6.05;;;;;;;;;;5033518;28;20406;-82
2023/11/15 07:28:56;;;;;;;6.60;4.60;;;;;;;;;;5034498;28;20228;-79
2023/11/15 07:31:43;;;;;;;8.57;5.70;;;;;;;;;;5033870;28;20477;-80
2023/11/15 07:34:10;;;;;;;8.07;4.40;;;;;;;;;;5047222;28;20420;-79
2023/11/15 07:36:36;;;;;;;7.80;4.10;;;;;;;;;;5034495;28;20436;-80
2023/11/15 07:39:04;;;;;;;6.40;4.30;;;;;;;;;;5034380;28;20437;-80
2023/11/15 07:41:31;;;;;;;5.50;4.73;;;;;;;;;;5032954;28;20897;-80
2023/11/15 07:43:58;;;;;;;8.50;5.37;;;;;;;;;;5034273;28;20401;-80
2023/11/15 07:46:24;;;;;;;7.10;4.00;;;;;;;;;;5033801;28;20964;-80
2023/11/15 07:48:50;;;;;;;5.47;3.60;;;;;;;;;;5033330;28;20409;-80
2023/11/15 07:51:18;;;;;;;5.00;3.03;;;;;;;;;;5034048;28;20446;-80
2023/11/15 07:53:44;;;;;;;5.60;3.70;;;;;;;;;;5034084;28;20439;-80
2023/11/15 07:56:09;;;;;;;5.57;3.67;;;;;;;;;;5033948;28;20411;-80
2023/11/15 07:58:38;;;;;;;5.03;3.63;;;;;;;;;;5033422;28;20663;-80
2023/11/15 08:01:05;;;;;;;4.30;3.80;;;;;;;;;;5033641;28;20228;-80
2023/11/15 08:03:31;;;;;;;4.40;3.53;;;;;;;;;;5033884;28;20410;-80
2023/11/15 08:05:57;;;;;;;4.63;2.30;;;;;;;;;;5033832;28;20413;-80
2023/11/15 08:08:23;;;;;;;6.33;3.27;;;;;;;;;;5033793;28;20468;-80
2023/11/15 08:10:50;;;;;;;4.90;2.80;;;;;;;;;;5033605;28;20910;-80
2023/11/15 08:13:19;;;;;;;5.20;3.50;;;;;;;;;;5033568;28;20473;-80
2023/11/15 08:15:46;;;;;;;6.40;2.60;;;;;;;;;;5011310;28;20476;-79
2023/11/15 08:18:13;;;;;;;5.00;3.70;;;;;;;;;;5015742;28;20422;-80
2023/11/15 08:20:41;;;;;;;5.40;2.93;;;;;;;;;;5031773;28;20410;-83
2023/11/15 08:23:08;;;;;;;3.83;3.23;;;;;;;;;;5033275;28;20418;-83
2023/11/15 08:25:34;;;;;;;3.80;2.33;;;;;;;;;;5032592;28;20416;-82
2023/11/15 08:28:01;;;;;;;4.23;3.33;;;;;;;;;;5033387;28;20417;-83
2023/11/15 08:30:27;;;;;;;4.63;3.00;;;;;;;;;;5031625;28;20495;-81
2023/11/15 08:32:55;;;;;;;6.93;3.00;;;;;;;;;;5032929;28;20231;-82
2023/11/15 08:35:21;;;;;;;5.53;3.63;;;;;;;;;;5032659;28;20413;-81
2023/11/15 08:37:48;;;;;;;3.90;2.87;;;;;;;;;;5033170;28;20442;-82
2023/11/15 08:40:17;;;;;;;4.40;2.20;;;;;;;;;;5031388;28;20415;-83
2023/11/15 08:42:43;;;;;;;2.80;1.80;;;;;;;;;;5032990;28;20427;-83
2023/11/15 08:45:10;;;;;;;3.63;2.27;;;;;;;;;;5032359;28;20458;-81
2023/11/15 08:47:36;;;;;;;5.27;1.73;;;;;;;;;;5033089;28;20438;-81
2023/11/15 08:50:03;;;;;;;3.97;2.57;;;;;;;;;;5033178;28;20439;-81
2023/11/15 08:52:29;;;;;;;3.90;1.67;;;;;;;;;;5032867;28;20471;-81
2023/11/15 08:54:56;;;;;;;4.20;2.73;;;;;;;;;;5032268;28;20767;-81
2023/11/15 08:57:22;;;;;;;4.13;2.20;;;;;;;;;;5033014;28;20478;-81
2023/11/15 08:59:47;;;;;;;3.00;2.00;;;;;;;;;;5032797;28;20434;-80
2023/11/15 09:02:21;;;;;;;3.87;2.53;;;;;;;;;;5032480;28;20418;-76
2023/11/15 09:04:47;;;;;;;5.13;2.30;;;;;;;;;;5032912;28;20427;-76
2023/11/15 09:07:13;;;;;;;4.77;3.60;;;;;;;;;;5032544;28;20501;-76
2023/11/15 09:09:42;;;;;;;3.83;2.67;;;;;;;;;;5032840;28;20506;-76
2023/11/15 09:12:08;;;;;;;4.80;3.30;;;;;;;;;;5032667;28;20466;-77
2023/11/15 09:14:35;;;;;;;4.17;2.83;;;;;;;;;;5032911;28;20427;-77
2023/11/15 09:17:02;;;;;;;3.60;2.50;;;;;;;;;;5002004;28;20459;-77
2023/11/15 09:19:28;;;;;;;2.27;1.10;;;;;;;;;;5038374;28;20417;-77
2023/11/15 09:21:54;;;;;;;1.50;1.07;;;;;;;;;;5032889;28;20414;-76
2023/11/15 09:24:25;;;;;;;2.07;1.10;;;;;;;;;;5032741;28;20410;-77
2023/11/15 09:26:51;;;;;;;1.67;1.00;;;;;;;;;;5031588;28;20431;-78
2023/11/15 09:29:17;;;;;;;2.20;1.47;;;;;;;;;;5032797;28;20410;-77
2023/11/15 09:31:46;;;;;;;2.97;1.97;;;;;;;;;;5032021;28;20472;-79
2023/11/15 09:34:12;;;;;;;2.13;0.90;;;;;;;;;;5032769;28;20421;-78
2023/11/15 09:36:38;;;;;;;1.80;1.33;;;;;;;;;;5032630;28;20405;-76
2023/11/15 09:39:09;;;;;;;2.20;1.30;;;;;;;;;;5032791;28;20181;-79
2023/11/15 09:41:35;;;;;;;2.90;2.10;;;;;;;;;;5032749;28;20410;-77
2023/11/15 09:44:08;;;;;;;4.93;1.50;;;;;;;;;;5032700;28;20536;-76
2023/11/15 09:46:35;;;;;;;2.70;1.23;;;;;;;;;;5032306;28;20446;-77
2023/11/15 09:49:01;;;;;;;3.50;0.93;;;;;;;;;;5032554;28;20422;-78
2023/11/15 09:51:34;;;;;;;2.47;1.23;;;;;;;;;;5032509;28;20415;-77
2023/11/15 09:54:06;;;;;;;1.80;1.00;;;;;;;;;;5032449;28;20981;-77
2023/11/15 09:56:32;;;;;;;1.70;1.23;;;;;;;;;;5032666;28;20405;-76
2023/11/15 09:58:58;;;;;;;1.77;0.80;;;;;;;;;;5032448;28;20420;-77
2023/11/15 10:01:26;;;;;;;4.53;2.17;;;;;;;;;;5032163;28;20408;-79
2023/11/15 10:03:52;;;;;;;3.70;1.50;;;;;;;;;;5031139;28;21006;-79
2023/11/15 10:06:18;;;;;;;2.63;1.10;;;;;;;;;;5032332;28;20430;-76
2023/11/15 10:08:51;;;;;;;3.33;1.63;;;;;;;;;;5032275;28;20447;-78
2023/11/15 10:11:17;;;;;;;2.60;1.70;;;;;;;;;;5032449;28;20400;-79
2023/11/15 10:13:43;;;;;;;3.27;1.10;;;;;;;;;;5034696;28;20438;-78
2023/11/15 10:16:30;;;;;;;2.20;1.17;;;;;;;;;;5018694;28;20953;-77
2023/11/15 10:18:58;;;;;;;2.13;1.83;;;;;;;;;;5033989;28;20408;-77
2023/11/15 10:21:24;;;;;;;3.20;1.70;;;;;;;;;;5035931;28;20947;-77
2023/11/15 10:23:51;;;;;;;3.00;1.33;;;;;;;;;;5035708;28;20463;-77
2023/11/15 10:26:17;;;;;;;3.57;2.20;;;;;;;;;;5035655;28;20477;-77
2023/11/15 10:28:46;;;;;;;2.97;1.27;;;;;;;;;;5035723;28;20411;-77
2023/11/15 10:31:14;;;;;;;1.63;0.93;;;;;;;;;;5035118;28;20466;-77
2023/11/15 10:33:45;;;;;;;2.57;1.30;;;;;;;;;;5035583;28;20552;-78
2023/11/15 10:36:17;;;;;;;6.90;3.30;;;;;;;;;;5035344;28;20501;-77
2023/11/15 10:38:44;;;;;;;3.90;2.47;;;;;;;;;;5035549;28;20417;-79
2023/11/15 10:41:17;;;;;;;2.60;1.67;;;;;;;;;;5035509;28;20755;-80
2023/11/15 10:43:43;;;;;;;3.40;2.20;;;;;;;;;;5035458;28;20414;-77
2023/11/15 10:46:12;;;;;;;3.37;2.30;;;;;;;;;;5035108;28;20468;-76
2023/11/15 10:48:39;;;;;;;3.87;2.10;;;;;;;;;;5035418;28;20779;-77
2023/11/15 10:51:13;;;;;;;4.90;2.43;;;;;;;;;;5035243;28;20415;-77
2023/11/15 10:53:39;;;;;;;4.10;2.30;;;;;;;;;;5050594;28;20480;-77
2023/11/15 10:56:06;;;;;;;4.43;2.20;;;;;;;;;;5035135;28;20419;-77
2023/11/15 10:58:32;;;;;;;2.87;2.10;;;;;;;;;;5035111;28;20410;-76
2023/11/15 11:01:01;;;;;;;3.33;1.80;;;;;;;;;;5034727;28;20503;-76
2023/11/15 11:03:28;;;;;;;2.63;1.67;;;;;;;;;;5035124;28;20769;-78
2023/11/15 11:05:59;;;;;;;4.63;2.00;;;;;;;;;;5035042;28;20413;-77
2023/11/15 11:08:31;;;;;;;2.60;1.60;;;;;;;;;;5035111;28;20418;-78
2023/11/15 11:11:08;;;;;;;5.40;2.30;;;;;;;;;;5035020;28;20413;-76
2023/11/15 11:13:34;;;;;;;2.13;1.43;;;;;;;;;;5034792;28;20473;-76
2023/11/15 11:16:20;;;;;;;3.00;1.40;;;;;;;;;;5034514;28;20466;-78
2023/11/15 11:19:06;;;;;;;1.60;1.03;;;;;;;;;;5034118;28;20798;-76
2023/11/15 11:21:51;;;;;;;2.00;1.70;;;;;;;;;;5034669;28;20411;-76
2023/11/15 11:24:18;;;;;;;2.13;0.97;;;;;;;;;;4996495;28;20432;-77
2023/11/15 11:26:45;;;;;;;1.90;1.10;;;;;;;;;;5034418;28;20404;-76
2023/11/15 11:29:12;;;;;;;2.10;1.20;;;;;;;;;;5034593;28;20503;-79
2023/11/15 11:31:38;;;;;;;2.27;1.23;;;;;;;;;;5034164;28;20987;-77
2023/11/15 11:34:08;;;;;;;2.00;1.77;;;;;;;;;;5034464;28;20467;-75
2023/11/15 11:36:58;;;;;;;1.97;0.87;;;;;;;;;;5034486;28;20413;-76
2023/11/15 11:39:55;;;;;;;2.90;0.73;;;;;;;;;;5034385;28;20453;-76
2023/11/15 11:42:24;;;;;;;1.20;0.87;;;;;;;;;;5041538;28;20450;-76
2023/11/15 11:44:54;;;;;;;1.77;0.67;;;;;;;;;;5033978;28;20415;-76
2023/11/15 11:47:20;;;;;;;3.10;0.77;;;;;;;;;;5034515;28;20416;-77
2023/11/15 11:49:50;;;;;;;3.37;0.60;;;;;;;;;;5069442;28;20427;-76
2023/11/15 11:52:19;;;;;;;1.17;0.50;;;;;;;;;;5053988;28;20560;-76
2023/11/15 11:54:52;;;;;;;1.63;0.67;;;;;;;;;;5054036;28;20418;-77
2023/11/15 11:57:25;;;;;;;1.13;0.33;;;;;;;;;;5053996;28;20418;-75
2023/11/15 12:00:11;;;;;;;0.70;0.20;;;;;;;;;;5053650;28;20440;-77
2023/11/15 12:02:37;;;;;;;1.47;0.30;;;;;;;;;;5053852;28;20416;-79
2023/11/15 12:05:04;;;;;;;1.90;0.30;;;;;;;;;;5053879;28;20417;-77
2023/11/15 12:07:30;;;;;;;1.50;0.50;;;;;;;;;;5053756;28;20486;-76
2023/11/15 12:10:05;;;;;;;0.70;0.40;;;;;;;;;;5053738;28;20427;-76
2023/11/15 12:12:31;;;;;;;0.70;0.20;;;;;;;;;;5053492;28;20814;-77
2023/11/15 12:15:00;;;;;;;1.73;0.43;;;;;;;;;;5053258;28;20414;-76
2023/11/15 12:17:42;;;;;;;1.33;0.30;;;;;;;;;;5044391;28;20779;-76
2023/11/15 12:20:09;;;;;;;1.07;0.50;;;;;;;;;;5039377;28;20407;-76
2023/11/15 12:22:36;;;;;;;1.23;0.20;;;;;;;;;;5035243;28;20416;-76
2023/11/15 12:25:03;;;;;;;0.50;0.20;;;;;;;;;;5001616;28;20481;-78
2023/11/15 12:27:32;;;;;;;0.67;0.20;;;;;;;;;;5053320;28;20509;-76
2023/11/15 12:29:58;;;;;;;0.53;0.20;;;;;;;;;;5052690;28;20408;-76
2023/11/15 12:32:25;;;;;;;0.83;0.20;;;;;;;;;;5053209;28;20521;-76
2023/11/15 12:34:51;;;;;;;1.23;0.20;;;;;;;;;;5052919;28;20413;-76
2023/11/15 12:37:17;;;;;;;0.90;0.10;;;;;;;;;;5053312;28;20411;-75
2023/11/15 12:39:43;;;;;;;1.43;0.20;;;;;;;;;;5053236;28;20416;-75
2023/11/15 12:42:08;;;;;;;1.13;0.30;;;;;;;;;;5053151;28;20400;-77
2023/11/15 12:44:41;;;;;;;0.50;0.20;;;;;;;;;;5052912;28;20412;-75
2023/11/15 12:47:08;;;;;;;1.07;0.20;;;;;;;;;;5053103;28;20407;-75
2023/11/15 12:49:34;;;;;;;0.93;0.10;;;;;;;;;;5053091;28;20503;-76
2023/11/15 12:52:00;;;;;;;0.40;0.20;;;;;;;;;;5053073;28;20517;-76
2023/11/15 12:54:26;;;;;;;0.60;0.20;;;;;;;;;;5052979;28;20803;-75
2023/11/15 12:57:02;;;;;;;0.80;0.23;;;;;;;;;;5053015;28;20223;-76
2023/11/15 12:59:35;;;;;;;1.70;0.20;;;;;;;;;;5052535;28;20420;-76
2023/11/15 13:02:02;;;;;;;1.20;0.40;;;;;;;;;;5068333;28;21003;-76
2023/11/15 13:04:44;;;;;;;0.77;0.20;;;;;;;;;;5052812;28;20404;-76
2023/11/15 13:07:10;;;;;;;0.60;0.30;;;;;;;;;;5052903;28;20444;-76
2023/11/15 13:09:36;;;;;;;0.77;0.30;;;;;;;;;;5068162;28;20473;-75
2023/11/15 13:12:04;;;;;;;0.80;0.20;;;;;;;;;;5052582;28;20535;-76
2023/11/15 13:14:30;;;;;;;0.87;0.30;;;;;;;;;;5052406;28;20423;-76
2023/11/15 13:16:58;;;;;;;0.63;0.20;;;;;;;;;;5052774;28;20403;-77
2023/11/15 13:19:25;;;;;;;0.50;0.20;;;;;;;;;;5052679;28;20419;-76
2023/11/15 13:21:51;;;;;;;1.40;0.20;;;;;;;;;;5052666;28;20412;-76
2023/11/15 13:24:23;;;;;;;1.37;0.30;;;;;;;;;;5052662;28;20911;-76
2023/11/15 13:26:50;;;;;;;0.87;0.20;;;;;;;;;;5037361;28;20414;-75
2023/11/15 13:29:23;;;;;;;0.30;0.20;;;;;;;;;;5006656;28;20412;-75
2023/11/15 13:31:49;;;;;;;0.47;0.20;;;;;;;;;;5032393;28;20840;-78
2023/11/15 13:34:18;;;;;;;2.10;0.20;;;;;;;;;;5032653;28;20972;-77
2023/11/15 13:36:47;;;;;;;0.47;0.30;;;;;;;;;;5032793;28;20424;-76
2023/11/15 13:39:14;;;;;;;1.90;0.20;;;;;;;;;;5032685;28;20504;-76
2023/11/15 13:41:41;;;;;;;0.83;0.20;;;;;;;;;;5032675;28;20505;-78
2023/11/15 13:44:07;;;;;;;0.73;0.20;;;;;;;;;;5018248;28;20480;-79
2023/11/15 13:46:33;;;;;;;0.80;0.33;;;;;;;;;;5027573;28;20930;-80
2023/11/15 13:49:03;;;;;;;0.50;0.20;;;;;;;;;;5031645;28;20198;-79
2023/11/15 13:51:30;;;;;;;1.40;0.60;;;;;;;;;;5031059;28;20794;-79
2023/11/15 13:53:56;;;;;;;3.23;0.20;;;;;;;;;;5016002;28;20414;-79
2023/11/15 13:56:23;;;;;;;0.80;0.20;;;;;;;;;;5031988;28;20439;-78
2023/11/15 13:58:49;;;;;;;2.90;1.53;;;;;;;;;;5026460;28;20840;-78
2023/11/15 14:01:18;;;;;;;1.53;0.20;;;;;;;;;;5040444;28;20430;-79
2023/11/15 14:03:44;;;;;;;0.60;0.20;;;;;;;;;;5043413;28;20986;-78
2023/11/15 14:06:11;;;;;;;1.77;0.20;;;;;;;;;;5028660;28;20500;-79
2023/11/15 14:08:38;;;;;;;1.17;0.20;;;;;;;;;;5031386;28;20421;-78
2023/11/15 14:11:07;;;;;;;2.40;0.20;;;;;;;;;;5016211;28;20910;-79
2023/11/15 14:13:36;;;;;;;2.87;0.30;;;;;;;;;;5015975;28;20473;-79
2023/11/15 14:16:03;;;;;;;5.23;0.50;;;;;;;;;;5022837;28;20424;-78
2023/11/15 14:18:32;;;;;;;2.27;0.73;;;;;;;;;;5046020;28;20417;-79
2023/11/15 14:20:58;;;;;;;1.10;0.20;;;;;;;;;;5044441;28;20475;-79
2023/11/15 14:23:24;;;;;;;1.23;0.20;;;;;;;;;;5044645;28;20510;-78
2023/11/15 14:25:49;;;;;;;2.40;0.73;;;;;;;;;;5045770;28;20416;-79
2023/11/15 14:28:15;;;;;;;0.80;0.20;;;;;;;;;;5000723;28;20439;-79
2023/11/15 14:30:43;;;;;;;1.87;0.30;;;;;;;;;;5033103;28;20223;-78
2023/11/15 14:33:11;;;;;;;1.80;0.50;;;;;;;;;;5034841;28;20912;-78
2023/11/15 14:35:40;;;;;;;1.60;0.20;;;;;;;;;;5035370;28;20408;-79
2023/11/15 14:38:08;;;;;;;1.43;0.43;;;;;;;;;;5034719;28;20915;-79
2023/11/15 14:40:34;;;;;;;1.40;0.40;;;;;;;;;;5035405;28;20412;-79
2023/11/15 14:43:01;;;;;;;0.70;0.27;;;;;;;;;;5035316;28;20444;-79
2023/11/15 14:45:30;;;;;;;0.83;0.20;;;;;;;;;;5035048;28;20499;-78